Cape York — VRXE9 — position and weather

sailwx.info

Track history (hours):
 
Tides and Currents Weather Stations Pressure Air Temp Water Temp Dewpoint Dewpoint Depression Visibility Wind Speed Wind Dir Waves Ship Positions

Cape York

Last reported at 2018-May-10 16:14 UTC. Time now 2018-May-27 01:29 UTC.
Position N 31°23' E 032°19'.
Warning: this ship's position is 16 days out of date.

Length 170 m; draft 10.2 m.

Type: Cargo ship. MMSI: 477924000.

Date/timePositionNaut miles runAvg speedWind from/ knotsBaromVisibWave heightAir tempDewpointWater temp
2018-May-10 16:14N 31°23' E 032°19'0 0.0
2018-May-10 15:53N 31°23' E 032°19'0 0.1
2018-May-10 15:03N 31°23' E 032°19'480 9.4
2018-May-08 11:49N 37°23' E 025°55'  
2018-May-02 08:06N 44°08' E 028°39'0 0.0
2018-May-02 08:00N 44°08' E 028°39'0 0.0
2018-May-02 07:30N 44°08' E 028°39'0 0.0
2018-May-02 07:00N 44°08' E 028°39'0 0.0
2018-May-02 06:30N 44°08' E 028°39'0 0.0
2018-May-02 06:00N 44°08' E 028°39'0 0.0
2018-May-02 05:30N 44°08' E 028°39'0 0.0
2018-May-02 05:00N 44°08' E 028°39'0 0.0
2018-May-02 04:27N 44°08' E 028°39'0 0.1
2018-May-02 04:00N 44°08' E 028°39'1 2.2
2018-May-02 03:31N 44°08' E 028°40'3 5.7
2018-May-02 03:01N 44°06' E 028°42'3 5.1
2018-May-02 02:30N 44°06' E 028°46'3 6.7
2018-May-02 02:01N 44°07' E 028°50'2 4.5
2018-May-02 01:28N 44°09' E 028°47'0 0.1
2018-May-02 00:58N 44°09' E 028°47'0 0.0
2018-May-02 00:28N 44°09' E 028°47'0 0.0
2018-May-01 23:58N 44°09' E 028°47'0 0.0
2018-May-01 23:28N 44°09' E 028°47'0 0.0
2018-May-01 22:58N 44°09' E 028°47'0 0.0
2018-May-01 22:28N 44°09' E 028°47'0 0.0
2018-May-01 21:58N 44°09' E 028°47'0 0.0
2018-May-01 21:28N 44°09' E 028°47'0 0.0
2018-May-01 20:58N 44°09' E 028°47'0 0.0
2018-May-01 20:28N 44°09' E 028°47'0 0.0
2018-May-01 19:58N 44°09' E 028°47'0 0.0
2018-May-01 19:28N 44°09' E 028°47'0 0.0
2018-May-01 18:55N 44°09' E 028°47'0 0.0
2018-May-01 18:19N 44°09' E 028°47'0 0.0
2018-May-01 17:58N 44°09' E 028°47'0 0.0
2018-May-01 17:25N 44°09' E 028°47'0 0.0
2018-May-01 16:58N 44°09' E 028°47'0 0.0
2018-May-01 16:28N 44°09' E 028°47'0 0.0
2018-May-01 15:58N 44°09' E 028°47'0 0.1
2018-May-01 15:28N 44°09' E 028°47'0 0.0
2018-May-01 14:58N 44°09' E 028°47'0 0.0
2018-May-01 14:28N 44°09' E 028°47'0 0.0
2018-May-01 13:58N 44°09' E 028°47'0 0.0
2018-May-01 13:28N 44°09' E 028°47'0 0.0
2018-May-01 12:58N 44°09' E 028°47'0 0.0
2018-May-01 12:22N 44°09' E 028°47'0 0.0
2018-May-01 11:55N 44°09' E 028°47'0 0.0
2018-May-01 11:28N 44°09' E 028°47'0 0.0
2018-May-01 10:52N 44°09' E 028°47'0 0.0
2018-May-01 10:25N 44°09' E 028°47'0 0.0
2018-May-01 09:58N 44°09' E 028°47'0 0.0
2018-May-01 09:28N 44°09' E 028°47'0 0.0
2018-May-01 08:58N 44°09' E 028°47'0 0.0
2018-May-01 08:28N 44°09' E 028°47'0 0.0
2018-May-01 07:58N 44°09' E 028°47'0 0.0
2018-May-01 07:25N 44°09' E 028°47'0 0.0
2018-May-01 06:58N 44°09' E 028°47'0 0.0
2018-May-01 06:28N 44°09' E 028°47'0 0.1
2018-May-01 05:58N 44°09' E 028°47'0 0.0
2018-May-01 05:28N 44°09' E 028°47'0 0.0
2018-May-01 05:00N 44°09' E 028°47'0 0.0
2018-May-01 04:30N 44°09' E 028°47'0 0.0
2018-May-01 04:00N 44°09' E 028°47'0 0.1
2018-May-01 03:30N 44°09' E 028°47'0 0.0
2018-May-01 03:00N 44°09' E 028°47'0 0.1
2018-May-01 02:30N 44°09' E 028°47'0 0.0
2018-May-01 02:00N 44°09' E 028°47'0 0.0
2018-May-01 01:30N 44°09' E 028°47'0 0.0
2018-May-01 00:57N 44°09' E 028°47'0 0.0
2018-May-01 00:30N 44°09' E 028°47'0 0.0
2018-Apr-30 23:57N 44°09' E 028°47'0 0.0
2018-Apr-30 23:24N 44°09' E 028°47'0 0.0
2018-Apr-30 23:00N 44°09' E 028°47'0 0.0
2018-Apr-30 22:30N 44°09' E 028°47'0 0.0
2018-Apr-30 22:00N 44°09' E 028°47'  
Track history (hours):
 
Tides and Currents Weather Stations Pressure Air Temp Water Temp Dewpoint Dewpoint Depression Visibility Wind Speed Wind Dir Waves Ship Positions

Cape York

Last reported at 2018-May-10 16:14 UTC. Time now 2018-May-27 01:29 UTC.
Position N 31°23' E 032°19'.
Warning: this ship's position is 16 days out of date.

Length 170 m; draft 10.2 m.

Type: Cargo ship. MMSI: 477924000.

Date/timePositionNaut miles runAvg speedWind from/ knotsBaromVisibWave heightAir tempDewpointWater temp
2018-May-10 16:14N 31°23' E 032°19'0 0.0
2018-May-10 15:53N 31°23' E 032°19'0 0.1
2018-May-10 15:03N 31°23' E 032°19'480 9.4
2018-May-08 11:49N 37°23' E 025°55'  
2018-May-02 08:06N 44°08' E 028°39'0 0.0
2018-May-02 08:00N 44°08' E 028°39'0 0.0
2018-May-02 07:30N 44°08' E 028°39'0 0.0
2018-May-02 07:00N 44°08' E 028°39'0 0.0
2018-May-02 06:30N 44°08' E 028°39'0 0.0
2018-May-02 06:00N 44°08' E 028°39'0 0.0
2018-May-02 05:30N 44°08' E 028°39'0 0.0
2018-May-02 05:00N 44°08' E 028°39'0 0.0
2018-May-02 04:27N 44°08' E 028°39'0 0.1
2018-May-02 04:00N 44°08' E 028°39'1 2.2
2018-May-02 03:31N 44°08' E 028°40'3 5.7
2018-May-02 03:01N 44°06' E 028°42'3 5.1
2018-May-02 02:30N 44°06' E 028°46'3 6.7
2018-May-02 02:01N 44°07' E 028°50'2 4.5
2018-May-02 01:28N 44°09' E 028°47'0 0.1
2018-May-02 00:58N 44°09' E 028°47'0 0.0
2018-May-02 00:28N 44°09' E 028°47'0 0.0
2018-May-01 23:58N 44°09' E 028°47'0 0.0
2018-May-01 23:28N 44°09' E 028°47'0 0.0
2018-May-01 22:58N 44°09' E 028°47'0 0.0
2018-May-01 22:28N 44°09' E 028°47'0 0.0
2018-May-01 21:58N 44°09' E 028°47'0 0.0
2018-May-01 21:28N 44°09' E 028°47'0 0.0
2018-May-01 20:58N 44°09' E 028°47'0 0.0
2018-May-01 20:28N 44°09' E 028°47'0 0.0
2018-May-01 19:58N 44°09' E 028°47'0 0.0
2018-May-01 19:28N 44°09' E 028°47'0 0.0
2018-May-01 18:55N 44°09' E 028°47'0 0.0
2018-May-01 18:19N 44°09' E 028°47'0 0.0
2018-May-01 17:58N 44°09' E 028°47'0 0.0
2018-May-01 17:25N 44°09' E 028°47'0 0.0
2018-May-01 16:58N 44°09' E 028°47'0 0.0
2018-May-01 16:28N 44°09' E 028°47'0 0.0
2018-May-01 15:58N 44°09' E 028°47'0 0.1
2018-May-01 15:28N 44°09' E 028°47'0 0.0
2018-May-01 14:58N 44°09' E 028°47'0 0.0
2018-May-01 14:28N 44°09' E 028°47'0 0.0
2018-May-01 13:58N 44°09' E 028°47'0 0.0
2018-May-01 13:28N 44°09' E 028°47'0 0.0
2018-May-01 12:58N 44°09' E 028°47'0 0.0
2018-May-01 12:22N 44°09' E 028°47'0 0.0
2018-May-01 11:55N 44°09' E 028°47'0 0.0
2018-May-01 11:28N 44°09' E 028°47'0 0.0
2018-May-01 10:52N 44°09' E 028°47'0 0.0
2018-May-01 10:25N 44°09' E 028°47'0 0.0
2018-May-01 09:58N 44°09' E 028°47'0 0.0
2018-May-01 09:28N 44°09' E 028°47'0 0.0
2018-May-01 08:58N 44°09' E 028°47'0 0.0
2018-May-01 08:28N 44°09' E 028°47'0 0.0
2018-May-01 07:58N 44°09' E 028°47'0 0.0
2018-May-01 07:25N 44°09' E 028°47'0 0.0
2018-May-01 06:58N 44°09' E 028°47'0 0.0
2018-May-01 06:28N 44°09' E 028°47'0 0.1
2018-May-01 05:58N 44°09' E 028°47'0 0.0
2018-May-01 05:28N 44°09' E 028°47'0 0.0
2018-May-01 05:00N 44°09' E 028°47'0 0.0
2018-May-01 04:30N 44°09' E 028°47'0 0.0
2018-May-01 04:00N 44°09' E 028°47'0 0.1
2018-May-01 03:30N 44°09' E 028°47'0 0.0
2018-May-01 03:00N 44°09' E 028°47'0 0.1
2018-May-01 02:30N 44°09' E 028°47'0 0.0
2018-May-01 02:00N 44°09' E 028°47'0 0.0
2018-May-01 01:30N 44°09' E 028°47'0 0.0
2018-May-01 00:57N 44°09' E 028°47'0 0.0
2018-May-01 00:30N 44°09' E 028°47'0 0.0
2018-Apr-30 23:57N 44°09' E 028°47'0 0.0
2018-Apr-30 23:24N 44°09' E 028°47'0 0.0
2018-Apr-30 23:00N 44°09' E 028°47'0 0.0
2018-Apr-30 22:30N 44°09' E 028°47'0 0.0
2018-Apr-30 22:00N 44°09' E 028°47'  

Dump ship's entire track history